Time;durP1;ratioP1;P1;durP2;ratioP2;P2;SDS_P1;SDS_P2;PMS_P1;PMS_P2;Temp;Humidity;BMP_temperature;BMP_pressure;BME280_temperature;BME280_humidity;BME280_pressure;Samples;Min_cycle;Max_cycle;Signal;HPM_P1;HPM_P2
2024/03/30 00:00:08;;;;;;;;;;;10.50;99.90;;;;;;2099122;28;19916;-72
2024/03/30 00:01:15;;;;;;;;;;;10.50;99.90;;;;;;2100889;28;20023;-72
2024/03/30 00:02:16;;;;;;;;;;;10.50;99.90;;;;;;2097642;28;20170;-73
2024/03/30 00:03:17;;;;;;;;;;;10.50;99.90;;;;;;2089460;28;20272;-72
2024/03/30 00:04:17;;;;;;;;;;;10.50;99.90;;;;;;2088578;28;19917;-73
2024/03/30 00:05:17;;;;;;;;;;;10.60;99.90;;;;;;2100683;28;19920;-74
2024/03/30 00:06:18;;;;;;;;;;;10.60;99.90;;;;;;2088601;28;20112;-72
2024/03/30 00:07:19;;;;;;;;;;;10.60;99.90;;;;;;2089915;28;19917;-73
2024/03/30 00:08:19;;;;;;;;;;;10.60;99.90;;;;;;2083934;28;20247;-72
2024/03/30 00:09:19;;;;;;;;;;;10.60;99.90;;;;;;2085956;28;19924;-73
2024/03/30 00:10:20;;;;;;;;;;;10.70;99.90;;;;;;2092145;28;20337;-72
2024/03/30 00:11:20;;;;;;;;;;;10.70;99.90;;;;;;2084355;28;20011;-73
2024/03/30 00:12:21;;;;;;;;;;;10.70;99.90;;;;;;2088695;28;19955;-73
2024/03/30 00:13:21;;;;;;;;;;;10.70;99.90;;;;;;2098135;28;20132;-73
2024/03/30 00:14:22;;;;;;;;;;;10.70;99.90;;;;;;2101752;28;19916;-74
2024/03/30 00:15:26;;;;;;;;;;;10.70;99.90;;;;;;2097264;28;19923;-72
2024/03/30 00:16:26;;;;;;;;;;;10.70;99.90;;;;;;2097733;28;19951;-72
2024/03/30 00:17:27;;;;;;;;;;;10.60;99.90;;;;;;2101542;28;19912;-73
2024/03/30 00:18:27;;;;;;;;;;;10.60;99.90;;;;;;2101304;28;19912;-76
2024/03/30 00:19:28;;;;;;;;;;;10.70;99.90;;;;;;2088289;28;19919;-76
2024/03/30 00:20:28;;;;;;;;;;;10.70;99.90;;;;;;2088090;28;19905;-76
2024/03/30 00:21:29;;;;;;;;;;;10.60;99.90;;;;;;2085214;28;20403;-73
2024/03/30 00:22:29;;;;;;;;;;;10.60;99.90;;;;;;2071586;28;19917;-72
2024/03/30 00:23:32;;;;;;;;;;;10.50;99.90;;;;;;2080160;28;19917;-71
2024/03/30 00:24:34;;;;;;;;;;;10.50;99.90;;;;;;2097714;28;20029;-71
2024/03/30 00:25:34;;;;;;;;;;;10.40;99.90;;;;;;2101428;28;19924;-71
2024/03/30 00:26:35;;;;;;;;;;;10.50;99.90;;;;;;2089205;28;20032;-71
2024/03/30 00:27:35;;;;;;;;;;;10.40;99.90;;;;;;2088634;28;19963;-71
2024/03/30 00:28:36;;;;;;;;;;;10.40;99.90;;;;;;2089089;28;19998;-71
2024/03/30 00:29:36;;;;;;;;;;;10.40;99.90;;;;;;2092326;28;19940;-71
2024/03/30 00:30:39;;;;;;;;;;;10.30;99.90;;;;;;2097295;28;19913;-71
2024/03/30 00:31:39;;;;;;;;;;;10.40;99.90;;;;;;2092745;28;19919;-71
2024/03/30 00:32:40;;;;;;;;;;;10.30;99.90;;;;;;2100531;28;20204;-72
2024/03/30 00:33:40;;;;;;;;;;;10.40;99.90;;;;;;2098380;28;19916;-72
2024/03/30 00:34:41;;;;;;;;;;;10.40;99.90;;;;;;2097124;28;19924;-72
2024/03/30 00:35:42;;;;;;;;;;;10.40;99.90;;;;;;2101041;28;19919;-72
2024/03/30 00:36:42;;;;;;;;;;;10.30;99.90;;;;;;2080870;28;20236;-72
2024/03/30 00:37:43;;;;;;;;;;;10.40;99.90;;;;;;2087660;28;19923;-72
2024/03/30 00:38:45;;;;;;;;;;;10.30;99.90;;;;;;2091269;28;19920;-73
2024/03/30 00:39:46;;;;;;;;;;;10.30;99.90;;;;;;2081511;28;19917;-72
2024/03/30 00:40:46;;;;;;;;;;;10.30;99.90;;;;;;2083964;28;19913;-72
2024/03/30 00:41:47;;;;;;;;;;;10.30;99.90;;;;;;2092462;28;19912;-72
2024/03/30 00:42:47;;;;;;;;;;;10.20;99.90;;;;;;2080092;28;19913;-72
2024/03/30 00:43:48;;;;;;;;;;;10.20;99.90;;;;;;2091344;28;19919;-72
2024/03/30 00:44:48;;;;;;;;;;;10.20;99.90;;;;;;2098692;28;20422;-71
2024/03/30 00:45:49;;;;;;;;;;;10.20;99.90;;;;;;2088516;28;19944;-71
2024/03/30 00:46:49;;;;;;;;;;;10.20;99.90;;;;;;2083253;28;20053;-71
2024/03/30 00:47:50;;;;;;;;;;;10.20;99.90;;;;;;2089865;28;19923;-72
2024/03/30 00:48:50;;;;;;;;;;;10.20;99.90;;;;;;2088117;28;19921;-71
2024/03/30 00:49:51;;;;;;;;;;;10.20;99.90;;;;;;2091008;28;20299;-71
2024/03/30 00:50:52;;;;;;;;;;;10.20;99.90;;;;;;2089802;28;19954;-71
2024/03/30 00:51:52;;;;;;;;;;;10.20;99.90;;;;;;2087840;28;19939;-71
2024/03/30 00:52:52;;;;;;;;;;;10.20;99.90;;;;;;2090943;28;20011;-70
2024/03/30 00:53:53;;;;;;;;;;;10.20;99.90;;;;;;2099077;28;19955;-72
2024/03/30 00:54:54;;;;;;;;;;;10.20;99.90;;;;;;2088578;28;19960;-70
2024/03/30 00:55:59;;;;;;;;;;;10.20;99.90;;;;;;2090138;28;19921;-71
2024/03/30 00:56:59;;;;;;;;;;;10.20;99.90;;;;;;2089204;28;20446;-72
2024/03/30 00:58:00;;;;;;;;;;;10.20;99.90;;;;;;2084207;28;19975;-71
2024/03/30 00:59:00;;;;;;;;;;;10.20;99.90;;;;;;2101593;28;20306;-71
2024/03/30 01:00:01;;;;;;;;;;;10.20;99.90;;;;;;2105246;28;19916;-70
2024/03/30 01:01:02;;;;;;;;;;;10.20;99.90;;;;;;2089999;28;20386;-70
2024/03/30 01:02:03;;;;;;;;;;;10.20;99.90;;;;;;2086433;28;19956;-70
2024/03/30 01:03:04;;;;;;;;;;;10.10;99.90;;;;;;2097046;28;20350;-70
2024/03/30 01:04:04;;;;;;;;;;;10.10;99.90;;;;;;2098599;28;20413;-71
2024/03/30 01:05:04;;;;;;;;;;;10.10;99.90;;;;;;2099623;28;19928;-70
2024/03/30 01:06:05;;;;;;;;;;;10.10;99.90;;;;;;2087038;28;20441;-70
2024/03/30 01:07:05;;;;;;;;;;;10.00;99.90;;;;;;2085073;28;20256;-70
2024/03/30 01:08:06;;;;;;;;;;;10.00;99.90;;;;;;2100144;28;19922;-70
2024/03/30 01:09:07;;;;;;;;;;;10.00;99.90;;;;;;2097445;28;19912;-71
2024/03/30 01:10:12;;;;;;;;;;;10.00;99.90;;;;;;2097968;28;20268;-70
2024/03/30 01:11:13;;;;;;;;;;;10.00;99.90;;;;;;2100853;28;20067;-70
2024/03/30 01:12:14;;;;;;;;;;;10.00;99.90;;;;;;2097411;28;19916;-71
2024/03/30 01:13:14;;;;;;;;;;;10.10;99.90;;;;;;2093090;28;19920;-70
2024/03/30 01:14:17;;;;;;;;;;;10.10;99.90;;;;;;2101465;28;19916;-71
2024/03/30 01:15:18;;;;;;;;;;;10.10;99.90;;;;;;2097739;28;20002;-70
2024/03/30 01:16:19;;;;;;;;;;;10.10;99.90;;;;;;2101104;28;20216;-72
2024/03/30 01:17:20;;;;;;;;;;;10.10;99.90;;;;;;2098349;28;19924;-70
2024/03/30 01:18:20;;;;;;;;;;;10.10;99.90;;;;;;2092891;28;20387;-70
2024/03/30 01:19:21;;;;;;;;;;;10.10;99.90;;;;;;2101200;28;19923;-70
2024/03/30 01:20:23;;;;;;;;;;;10.10;99.90;;;;;;2090916;28;19916;-70
2024/03/30 01:21:24;;;;;;;;;;;10.10;99.90;;;;;;2087986;28;20394;-69
2024/03/30 01:22:24;;;;;;;;;;;10.10;99.90;;;;;;2080103;28;19928;-71
2024/03/30 01:23:25;;;;;;;;;;;10.10;99.90;;;;;;2092210;28;19981;-72
2024/03/30 01:24:26;;;;;;;;;;;10.10;99.90;;;;;;2092005;28;19916;-70
2024/03/30 01:25:27;;;;;;;;;;;10.00;99.90;;;;;;2091670;28;19924;-70
2024/03/30 01:26:28;;;;;;;;;;;10.00;99.90;;;;;;2098162;28;19935;-71
2024/03/30 01:27:29;;;;;;;;;;;9.90;99.90;;;;;;2097129;28;20362;-70
2024/03/30 01:28:29;;;;;;;;;;;9.90;99.90;;;;;;2090747;28;19923;-74
2024/03/30 01:29:30;;;;;;;;;;;9.90;99.90;;;;;;2089594;28;19916;-70
2024/03/30 01:30:31;;;;;;;;;;;9.90;99.90;;;;;;2087701;28;19982;-74
2024/03/30 01:31:32;;;;;;;;;;;9.90;99.90;;;;;;2086579;28;19990;-73
2024/03/30 01:32:36;;;;;;;;;;;9.80;99.90;;;;;;2089673;28;19931;-73
2024/03/30 01:33:36;;;;;;;;;;;9.80;99.90;;;;;;2099602;28;20378;-73
2024/03/30 01:34:37;;;;;;;;;;;9.80;99.90;;;;;;2096953;28;19948;-73
2024/03/30 01:35:37;;;;;;;;;;;9.80;99.90;;;;;;2089374;28;19917;-73
2024/03/30 01:36:38;;;;;;;;;;;9.90;99.90;;;;;;2088023;28;19912;-73
2024/03/30 01:37:38;;;;;;;;;;;9.90;99.90;;;;;;2098808;28;20373;-74
2024/03/30 01:38:39;;;;;;;;;;;9.90;99.90;;;;;;2096910;28;19916;-73
2024/03/30 01:39:39;;;;;;;;;;;9.90;99.90;;;;;;2099053;28;19965;-75
2024/03/30 01:40:40;;;;;;;;;;;9.90;99.90;;;;;;2100407;28;20513;-70
2024/03/30 01:41:41;;;;;;;;;;;10.00;99.90;;;;;;2100120;28;19950;-69
2024/03/30 01:42:41;;;;;;;;;;;10.00;99.90;;;;;;2098496;28;19927;-72
2024/03/30 01:43:42;;;;;;;;;;;10.00;99.90;;;;;;2099527;28;20320;-70
2024/03/30 01:44:42;;;;;;;;;;;10.00;99.90;;;;;;2096917;28;19913;-70
2024/03/30 01:45:44;;;;;;;;;;;10.10;99.90;;;;;;2098447;28;20382;-70
2024/03/30 01:46:44;;;;;;;;;;;10.10;99.90;;;;;;2099776;28;20080;-71
2024/03/30 01:47:45;;;;;;;;;;;10.10;99.90;;;;;;2096538;28;20003;-70
2024/03/30 01:48:46;;;;;;;;;;;10.00;99.90;;;;;;2098034;28;19926;-70
2024/03/30 01:49:46;;;;;;;;;;;10.00;99.90;;;;;;2099874;28;19923;-71
2024/03/30 01:50:48;;;;;;;;;;;10.10;99.90;;;;;;2087863;28;19909;-70
2024/03/30 01:51:49;;;;;;;;;;;10.00;99.90;;;;;;2080435;28;20385;-70
2024/03/30 01:52:50;;;;;;;;;;;10.00;99.90;;;;;;2091038;28;20088;-70
2024/03/30 01:53:51;;;;;;;;;;;10.00;99.90;;;;;;2095955;28;20002;-71
2024/03/30 01:54:51;;;;;;;;;;;10.00;99.90;;;;;;2096430;28;19962;-70
2024/03/30 01:55:52;;;;;;;;;;;9.90;99.90;;;;;;2097792;28;20003;-70
2024/03/30 01:56:53;;;;;;;;;;;10.00;99.90;;;;;;2090762;28;19916;-70
2024/03/30 01:57:54;;;;;;;;;;;10.00;99.90;;;;;;2091076;28;19944;-70
2024/03/30 01:58:56;;;;;;;;;;;10.00;99.90;;;;;;2100592;28;19923;-70
2024/03/30 01:59:56;;;;;;;;;;;10.00;99.90;;;;;;2088021;28;19922;-71
2024/03/30 02:00:57;;;;;;;;;;;10.00;99.90;;;;;;2091388;28;19931;-71
2024/03/30 02:01:58;;;;;;;;;;;10.00;99.90;;;;;;2096560;28;19912;-70
2024/03/30 02:03:01;;;;;;;;;;;10.00;99.90;;;;;;2087026;28;19917;-70
2024/03/30 02:04:01;;;;;;;;;;;10.00;99.90;;;;;;2091550;28;19920;-70
2024/03/30 02:05:02;;;;;;;;;;;10.00;99.90;;;;;;2096587;28;20227;-71
2024/03/30 02:06:03;;;;;;;;;;;10.00;99.90;;;;;;2096313;28;19912;-71
2024/03/30 02:07:04;;;;;;;;;;;10.00;99.90;;;;;;2100127;28;20168;-71
2024/03/30 02:08:06;;;;;;;;;;;10.00;99.90;;;;;;2097232;28;19916;-70
2024/03/30 02:09:07;;;;;;;;;;;10.10;99.90;;;;;;2096416;28;19912;-70
2024/03/30 02:10:11;;;;;;;;;;;10.10;99.90;;;;;;2099401;28;20147;-70
2024/03/30 02:11:13;;;;;;;;;;;10.00;99.90;;;;;;2098073;28;20014;-69
2024/03/30 02:12:14;;;;;;;;;;;10.00;99.90;;;;;;2096349;28;19916;-70
2024/03/30 02:13:14;;;;;;;;;;;10.00;99.90;;;;;;2096221;28;20027;-70
2024/03/30 02:14:15;;;;;;;;;;;10.00;99.90;;;;;;2099419;28;19974;-70
2024/03/30 02:15:15;;;;;;;;;;;10.00;99.90;;;;;;2098064;28;19912;-69
2024/03/30 02:16:18;;;;;;;;;;;10.00;99.90;;;;;;2097341;28;19916;-70
2024/03/30 02:17:19;;;;;;;;;;;10.00;99.90;;;;;;2098929;28;19913;-71
2024/03/30 02:18:19;;;;;;;;;;;10.00;99.90;;;;;;2098127;28;20243;-70
2024/03/30 02:19:21;;;;;;;;;;;10.10;99.90;;;;;;2096547;28;20776;-71
2024/03/30 02:20:22;;;;;;;;;;;10.10;99.90;;;;;;2098128;28;19924;-71
2024/03/30 02:21:22;;;;;;;;;;;10.00;99.90;;;;;;2098940;28;19924;-70
2024/03/30 02:22:23;;;;;;;;;;;10.00;99.90;;;;;;2096334;28;19928;-70
2024/03/30 02:23:23;;;;;;;;;;;9.90;99.90;;;;;;2098068;28;19908;-70
2024/03/30 02:24:24;;;;;;;;;;;9.90;99.90;;;;;;2099370;28;19927;-71
2024/03/30 02:25:24;;;;;;;;;;;9.90;99.90;;;;;;2087542;28;19955;-70
2024/03/30 02:26:25;;;;;;;;;;;9.90;99.90;;;;;;2088975;28;19956;-70
2024/03/30 02:27:27;;;;;;;;;;;9.90;99.90;;;;;;2089929;28;21347;-71
2024/03/30 02:28:29;;;;;;;;;;;9.80;99.90;;;;;;2087449;28;20457;-70
2024/03/30 02:29:32;;;;;;;;;;;9.80;99.90;;;;;;2097122;28;20397;-74
2024/03/30 02:30:33;;;;;;;;;;;9.80;99.90;;;;;;2096234;28;19908;-71
2024/03/30 02:31:33;;;;;;;;;;;9.90;99.90;;;;;;2095100;28;20298;-71
2024/03/30 02:32:34;;;;;;;;;;;9.90;99.90;;;;;;2091518;28;20298;-71
2024/03/30 02:33:35;;;;;;;;;;;9.90;99.90;;;;;;2078864;28;19917;-70
2024/03/30 02:34:36;;;;;;;;;;;9.90;99.90;;;;;;2083043;28;19920;-70
2024/03/30 02:35:36;;;;;;;;;;;9.90;99.90;;;;;;2091238;28;19913;-70
2024/03/30 02:36:37;;;;;;;;;;;9.90;99.90;;;;;;2100423;28;19920;-70
2024/03/30 02:37:38;;;;;;;;;;;10.00;99.90;;;;;;2096556;28;19939;-70
2024/03/30 02:38:38;;;;;;;;;;;10.00;99.90;;;;;;2100464;28;19920;-71
2024/03/30 02:39:39;;;;;;;;;;;10.00;99.90;;;;;;2096479;28;19916;-70
2024/03/30 02:40:46;;;;;;;;;;;10.00;99.90;;;;;;2086926;28;20366;-70
2024/03/30 02:41:46;;;;;;;;;;;10.00;99.90;;;;;;2081182;28;19924;-70
2024/03/30 02:42:47;;;;;;;;;;;10.00;99.90;;;;;;2099838;28;19920;-70
2024/03/30 02:43:47;;;;;;;;;;;10.10;99.90;;;;;;2099606;28;19984;-70
2024/03/30 02:44:48;;;;;;;;;;;10.00;99.90;;;;;;2099581;28;20305;-70
2024/03/30 02:45:51;;;;;;;;;;;10.10;99.90;;;;;;2101012;28;19963;-70
2024/03/30 02:46:51;;;;;;;;;;;10.00;99.90;;;;;;2102240;28;19979;-70
2024/03/30 02:47:52;;;;;;;;;;;10.00;99.90;;;;;;2098691;28;20369;-70
2024/03/30 02:48:52;;;;;;;;;;;10.00;99.90;;;;;;2098147;28;20015;-69
2024/03/30 02:49:53;;;;;;;;;;;10.00;99.90;;;;;;2096017;28;19962;-70
2024/03/30 02:50:53;;;;;;;;;;;10.00;99.90;;;;;;2087062;28;19913;-70
2024/03/30 02:51:54;;;;;;;;;;;10.00;99.90;;;;;;2090674;28;19946;-71
2024/03/30 02:52:54;;;;;;;;;;;9.90;99.90;;;;;;2097340;28;19928;-70
2024/03/30 02:53:54;;;;;;;;;;;9.90;99.90;;;;;;2096306;28;19920;-70
2024/03/30 02:54:55;;;;;;;;;;;9.90;99.90;;;;;;2099128;28;19916;-69
2024/03/30 02:55:55;;;;;;;;;;;10.00;99.90;;;;;;2095660;28;19974;-70
2024/03/30 02:56:56;;;;;;;;;;;9.90;99.90;;;;;;2092849;28;19959;-70
2024/03/30 02:57:56;;;;;;;;;;;10.00;99.90;;;;;;2098857;28;19916;-70
2024/03/30 02:58:57;;;;;;;;;;;9.90;99.90;;;;;;2098070;28;19912;-70
2024/03/30 02:59:57;;;;;;;;;;;9.90;99.90;;;;;;2100437;28;19923;-70
2024/03/30 03:00:58;;;;;;;;;;;10.00;99.90;;;;;;2100574;28;19916;-70
2024/03/30 03:01:59;;;;;;;;;;;10.00;99.90;;;;;;2100546;28;19976;-70
2024/03/30 03:03:00;;;;;;;;;;;10.00;99.90;;;;;;2096474;28;19909;-70
2024/03/30 03:04:00;;;;;;;;;;;10.00;99.90;;;;;;2097949;28;19961;-71
2024/03/30 03:05:00;;;;;;;;;;;10.00;99.90;;;;;;2099387;28;19971;-70
2024/03/30 03:06:01;;;;;;;;;;;10.00;99.90;;;;;;2099705;28;20361;-70
2024/03/30 03:07:02;;;;;;;;;;;10.00;99.90;;;;;;2098130;28;20011;-69
2024/03/30 03:08:03;;;;;;;;;;;10.00;99.90;;;;;;2098858;28;19923;-70
2024/03/30 03:09:05;;;;;;;;;;;10.00;99.90;;;;;;2089990;28;20035;-72
2024/03/30 03:10:05;;;;;;;;;;;10.00;99.90;;;;;;2082405;28;20011;-69
2024/03/30 03:11:06;;;;;;;;;;;10.00;99.90;;;;;;2090640;28;19916;-70
2024/03/30 03:12:07;;;;;;;;;;;10.00;99.90;;;;;;2096352;28;20402;-69
2024/03/30 03:13:07;;;;;;;;;;;10.00;99.90;;;;;;2100315;28;19931;-70
2024/03/30 03:14:07;;;;;;;;;;;10.00;99.90;;;;;;2100233;28;20058;-70
2024/03/30 03:15:08;;;;;;;;;;;10.00;99.90;;;;;;2091230;28;20409;-70
2024/03/30 03:16:09;;;;;;;;;;;9.90;99.90;;;;;;2087108;28;19955;-70
2024/03/30 03:17:09;;;;;;;;;;;9.90;99.90;;;;;;2097178;28;19955;-70
2024/03/30 03:18:09;;;;;;;;;;;10.00;99.90;;;;;;2099698;28;19926;-71
2024/03/30 03:19:10;;;;;;;;;;;10.00;99.90;;;;;;2095916;28;20439;-70
2024/03/30 03:20:10;;;;;;;;;;;10.00;99.90;;;;;;2096814;28;20012;-70
2024/03/30 03:21:11;;;;;;;;;;;10.00;99.90;;;;;;2100004;28;19924;-70
2024/03/30 03:22:11;;;;;;;;;;;10.00;99.90;;;;;;2096662;28;19931;-70
2024/03/30 03:23:12;;;;;;;;;;;10.00;99.90;;;;;;2100220;28;19923;-70
2024/03/30 03:24:13;;;;;;;;;;;10.00;99.90;;;;;;2083093;28;20402;-70
2024/03/30 03:25:13;;;;;;;;;;;10.00;99.90;;;;;;2083117;28;19979;-70
2024/03/30 03:26:14;;;;;;;;;;;10.00;99.90;;;;;;2087314;28;19959;-70
2024/03/30 03:27:14;;;;;;;;;;;10.00;99.90;;;;;;2089301;28;19913;-71
2024/03/30 03:28:15;;;;;;;;;;;10.00;99.90;;;;;;2095970;28;19912;-70
2024/03/30 03:29:15;;;;;;;;;;;10.00;99.90;;;;;;2100445;28;19989;-71
2024/03/30 03:30:16;;;;;;;;;;;10.00;99.90;;;;;;2097533;28;19916;-71
2024/03/30 03:31:16;;;;;;;;;;;9.90;99.90;;;;;;2095940;28;19912;-70
2024/03/30 03:32:17;;;;;;;;;;;9.90;99.90;;;;;;2101585;28;20142;-71
2024/03/30 03:33:17;;;;;;;;;;;9.90;99.90;;;;;;2097929;28;20378;-70
2024/03/30 03:34:18;;;;;;;;;;;9.90;99.90;;;;;;2097910;28;19916;-71
2024/03/30 03:35:18;;;;;;;;;;;9.80;99.90;;;;;;2102000;28;19912;-70
2024/03/30 03:36:19;;;;;;;;;;;9.90;99.90;;;;;;2097706;28;20014;-70
2024/03/30 03:37:20;;;;;;;;;;;9.90;99.90;;;;;;2097438;28;19951;-70
2024/03/30 03:38:20;;;;;;;;;;;9.90;99.90;;;;;;2101988;28;20294;-69
2024/03/30 03:39:22;;;;;;;;;;;9.90;99.90;;;;;;2088750;28;20196;-69
2024/03/30 03:40:22;;;;;;;;;;;9.90;99.90;;;;;;2089021;28;20351;-69
2024/03/30 03:41:23;;;;;;;;;;;9.90;99.90;;;;;;2101340;28;19928;-70
2024/03/30 03:42:23;;;;;;;;;;;9.90;99.90;;;;;;2101390;28;19913;-70
2024/03/30 03:43:24;;;;;;;;;;;9.90;99.90;;;;;;2100979;28;20019;-70
2024/03/30 03:44:24;;;;;;;;;;;9.90;99.90;;;;;;2101087;28;20414;-70
2024/03/30 03:45:25;;;;;;;;;;;9.90;99.90;;;;;;2089269;28;19952;-70
2024/03/30 03:46:25;;;;;;;;;;;9.90;99.90;;;;;;2080394;28;19967;-69
2024/03/30 03:47:26;;;;;;;;;;;9.90;99.90;;;;;;2080669;28;19987;-70
2024/03/30 03:48:26;;;;;;;;;;;9.90;99.90;;;;;;2084715;28;20026;-70
2024/03/30 03:49:26;;;;;;;;;;;9.90;99.90;;;;;;2101978;28;20500;-70
2024/03/30 03:50:27;;;;;;;;;;;9.90;99.90;;;;;;2089078;28;20040;-70
2024/03/30 03:51:27;;;;;;;;;;;9.90;99.90;;;;;;2088996;28;19917;-70
2024/03/30 03:52:28;;;;;;;;;;;9.90;99.90;;;;;;2092421;28;19913;-70
2024/03/30 03:53:28;;;;;;;;;;;9.90;99.90;;;;;;2098076;28;19912;-71
2024/03/30 03:54:29;;;;;;;;;;;9.90;99.90;;;;;;2097727;28;19919;-70
2024/03/30 03:55:31;;;;;;;;;;;9.90;99.90;;;;;;2101323;28;20297;-70
2024/03/30 03:56:31;;;;;;;;;;;9.90;99.90;;;;;;2098728;28;20388;-70
2024/03/30 03:57:32;;;;;;;;;;;9.90;99.90;;;;;;2097420;28;19923;-70
2024/03/30 03:58:33;;;;;;;;;;;9.90;99.90;;;;;;2100710;28;19916;-71
2024/03/30 03:59:33;;;;;;;;;;;9.90;99.90;;;;;;2098909;28;19923;-70
2024/03/30 04:00:33;;;;;;;;;;;9.90;99.90;;;;;;2088461;28;19975;-70
2024/03/30 04:01:34;;;;;;;;;;;9.90;99.90;;;;;;2091514;28;19971;-70
2024/03/30 04:02:34;;;;;;;;;;;9.90;99.90;;;;;;2089768;28;20208;-71
2024/03/30 04:03:36;;;;;;;;;;;9.90;99.90;;;;;;2097756;28;19920;-70
2024/03/30 04:04:36;;;;;;;;;;;9.90;99.90;;;;;;2088183;28;19923;-70
2024/03/30 04:05:37;;;;;;;;;;;9.90;99.90;;;;;;2088843;28;19929;-70
2024/03/30 04:06:37;;;;;;;;;;;9.90;99.90;;;;;;2092062;28;19916;-71
2024/03/30 04:07:38;;;;;;;;;;;9.90;99.90;;;;;;2089705;28;19916;-70
2024/03/30 04:08:38;;;;;;;;;;;9.90;99.90;;;;;;2096156;28;20335;-70
2024/03/30 04:09:39;;;;;;;;;;;9.90;99.90;;;;;;2100107;28;19920;-70
2024/03/30 04:10:39;;;;;;;;;;;9.90;99.90;;;;;;2098959;28;20366;-70
2024/03/30 04:11:40;;;;;;;;;;;9.90;99.90;;;;;;2097515;28;20123;-70
2024/03/30 04:12:40;;;;;;;;;;;9.90;99.90;;;;;;2100129;28;19928;-70
2024/03/30 04:13:41;;;;;;;;;;;9.90;99.90;;;;;;2089738;28;20509;-69
2024/03/30 04:14:41;;;;;;;;;;;9.90;99.90;;;;;;2088517;28;19966;-71
2024/03/30 04:15:42;;;;;;;;;;;9.90;99.90;;;;;;2099667;28;19955;-69
2024/03/30 04:16:42;;;;;;;;;;;10.00;99.90;;;;;;2099218;28;19955;-69
2024/03/30 04:17:43;;;;;;;;;;;10.00;99.90;;;;;;2097602;28;19934;-70
2024/03/30 04:18:43;;;;;;;;;;;10.10;99.90;;;;;;2099585;28;19908;-70
2024/03/30 04:19:44;;;;;;;;;;;10.10;99.90;;;;;;2090460;28;20643;-70
2024/03/30 04:20:44;;;;;;;;;;;10.10;99.90;;;;;;2088419;28;19921;-70
2024/03/30 04:21:45;;;;;;;;;;;10.30;99.90;;;;;;2099912;28;20401;-71
2024/03/30 04:22:45;;;;;;;;;;;10.40;99.90;;;;;;2097684;28;19924;-71
2024/03/30 04:23:48;;;;;;;;;;;10.50;99.90;;;;;;2097982;28;20377;-70
2024/03/30 04:24:49;;;;;;;;;;;10.50;99.90;;;;;;2099837;28;19927;-70
2024/03/30 04:26:02;;;;;;;;;;;10.60;99.90;;;;;;2097286;28;19908;-70
2024/03/30 04:27:04;;;;;;;;;;;10.70;99.90;;;;;;2097503;28;20365;-70
2024/03/30 04:28:04;;;;;;;;;;;10.70;99.90;;;;;;2096316;28;20441;-70
2024/03/30 04:29:05;;;;;;;;;;;10.80;99.90;;;;;;2096543;28;20006;-70
2024/03/30 04:30:07;;;;;;;;;;;10.90;99.90;;;;;;2097530;28;20053;-67
2024/03/30 04:31:07;;;;;;;;;;;11.00;99.90;;;;;;2098483;28;19966;-70
2024/03/30 04:32:08;;;;;;;;;;;11.10;99.90;;;;;;2088907;28;20447;-70
2024/03/30 04:33:08;;;;;;;;;;;11.10;99.90;;;;;;2088409;28;20000;-69
2024/03/30 04:34:09;;;;;;;;;;;11.20;99.90;;;;;;2100769;28;19912;-70
2024/03/30 04:35:09;;;;;;;;;;;11.20;99.90;;;;;;2097881;28;20125;-69
2024/03/30 04:36:10;;;;;;;;;;;11.30;99.90;;;;;;2097310;28;20339;-70
2024/03/30 04:37:10;;;;;;;;;;;11.30;99.90;;;;;;2100639;28;19963;-71
2024/03/30 04:38:11;;;;;;;;;;;11.30;99.90;;;;;;2088299;28;19921;-70
2024/03/30 04:39:11;;;;;;;;;;;11.30;99.90;;;;;;2084689;28;20247;-71
2024/03/30 04:40:12;;;;;;;;;;;11.40;99.90;;;;;;2091308;28;19912;-71
2024/03/30 04:41:12;;;;;;;;;;;11.40;99.90;;;;;;2088989;28;19924;-70
2024/03/30 04:42:13;;;;;;;;;;;11.50;99.90;;;;;;2092196;28;19920;-71
2024/03/30 04:43:13;;;;;;;;;;;11.60;99.90;;;;;;2101463;28;19916;-71
2024/03/30 04:44:14;;;;;;;;;;;11.60;99.90;;;;;;2101230;28;20239;-69
2024/03/30 04:45:14;;;;;;;;;;;11.60;99.90;;;;;;2101380;28;20297;-70
2024/03/30 04:46:15;;;;;;;;;;;11.60;99.90;;;;;;2100966;28;19954;-70
2024/03/30 04:47:15;;;;;;;;;;;11.60;99.90;;;;;;2101403;28;20029;-70
2024/03/30 04:48:17;;;;;;;;;;;11.70;99.90;;;;;;2100225;28;19912;-71
2024/03/30 04:49:17;;;;;;;;;;;11.70;99.90;;;;;;2098172;28;19918;-71
2024/03/30 04:50:18;;;;;;;;;;;11.70;99.90;;;;;;2088315;28;20501;-71
2024/03/30 04:51:18;;;;;;;;;;;11.70;99.90;;;;;;2091821;28;19966;-70
2024/03/30 04:52:19;;;;;;;;;;;11.70;99.90;;;;;;2101367;28;19912;-70
2024/03/30 04:53:23;;;;;;;;;;;11.70;99.90;;;;;;2096899;28;19920;-71
2024/03/30 04:54:23;;;;;;;;;;;11.70;99.90;;;;;;2091946;28;19967;-72
2024/03/30 04:55:23;;;;;;;;;;;11.70;99.90;;;;;;2092175;28;19920;-71
2024/03/30 04:56:24;;;;;;;;;;;11.70;99.90;;;;;;2096767;28;19920;-72
2024/03/30 04:57:25;;;;;;;;;;;11.70;99.90;;;;;;2101274;28;19920;-71
2024/03/30 04:58:26;;;;;;;;;;;11.80;99.90;;;;;;2092029;28;19964;-71
2024/03/30 04:59:26;;;;;;;;;;;11.80;99.90;;;;;;2092036;28;20052;-70
2024/03/30 05:00:27;;;;;;;;;;;11.80;99.90;;;;;;2087612;28;19913;-71
2024/03/30 05:01:27;;;;;;;;;;;11.80;99.90;;;;;;2101085;28;20409;-71
2024/03/30 05:02:27;;;;;;;;;;;11.80;99.90;;;;;;2092113;28;19916;-70
2024/03/30 05:03:28;;;;;;;;;;;11.80;99.90;;;;;;2087758;28;19983;-71
2024/03/30 05:04:29;;;;;;;;;;;11.80;99.90;;;;;;2099344;28;19916;-71
2024/03/30 05:05:29;;;;;;;;;;;11.90;99.90;;;;;;2098633;28;20075;-70
2024/03/30 05:06:29;;;;;;;;;;;11.90;99.90;;;;;;2090466;28;19923;-70
2024/03/30 05:07:30;;;;;;;;;;;11.90;99.90;;;;;;2087839;28;19925;-70
2024/03/30 05:08:31;;;;;;;;;;;11.90;99.90;;;;;;2090033;28;20473;-69
2024/03/30 05:09:31;;;;;;;;;;;12.00;99.90;;;;;;2090177;28;20009;-70
2024/03/30 05:10:32;;;;;;;;;;;12.00;99.90;;;;;;2099834;28;19912;-70
2024/03/30 05:11:32;;;;;;;;;;;12.10;99.90;;;;;;2094389;28;19920;-70
2024/03/30 05:12:33;;;;;;;;;;;12.20;99.90;;;;;;2096003;28;20382;-71
2024/03/30 05:13:33;;;;;;;;;;;12.30;99.90;;;;;;2082643;28;20373;-70
2024/03/30 05:14:34;;;;;;;;;;;12.40;99.90;;;;;;2071090;28;19927;-70
2024/03/30 05:15:38;;;;;;;;;;;12.40;99.90;;;;;;2089410;28;19967;-70
2024/03/30 05:16:39;;;;;;;;;;;12.50;99.90;;;;;;2091267;28;19916;-70
2024/03/30 05:17:39;;;;;;;;;;;12.50;99.90;;;;;;2087936;28;19913;-71
2024/03/30 05:18:40;;;;;;;;;;;12.60;99.90;;;;;;2088675;28;19957;-70
2024/03/30 05:21:01;;;;;;;;;;;12.70;99.90;;;;;;2094822;28;20348;-71
2024/03/30 05:22:01;;;;;;;;;;;12.70;99.90;;;;;;2099527;28;19973;-70
2024/03/30 05:23:02;;;;;;;;;;;12.70;99.90;;;;;;2089540;28;19995;-70
2024/03/30 05:24:02;;;;;;;;;;;12.70;99.90;;;;;;2088066;28;19914;-70
2024/03/30 05:25:03;;;;;;;;;;;12.80;99.90;;;;;;2098787;28;19916;-70
2024/03/30 05:26:05;;;;;;;;;;;12.80;99.90;;;;;;2098785;28;19981;-70
2024/03/30 05:27:05;;;;;;;;;;;12.80;99.90;;;;;;2083494;28;19988;-71
2024/03/30 05:28:06;;;;;;;;;;;12.80;99.90;;;;;;2088020;28;19924;-70
2024/03/30 05:29:06;;;;;;;;;;;12.80;99.90;;;;;;2100994;28;19934;-71
2024/03/30 05:30:08;;;;;;;;;;;12.80;99.90;;;;;;2096708;28;19936;-70
2024/03/30 05:31:18;;;;;;;;;;;12.80;99.90;;;;;;2082023;28;19921;-70
2024/03/30 05:32:19;;;;;;;;;;;12.80;99.90;;;;;;2088036;28;19917;-70
2024/03/30 05:33:20;;;;;;;;;;;12.80;99.90;;;;;;2083480;28;20264;-71
2024/03/30 05:34:21;;;;;;;;;;;12.80;99.90;;;;;;2079484;28;20383;-70
2024/03/30 05:35:21;;;;;;;;;;;12.80;99.90;;;;;;2083394;28;19938;-71
2024/03/30 05:36:22;;;;;;;;;;;12.70;99.90;;;;;;2095918;28;20013;-70
2024/03/30 05:37:22;;;;;;;;;;;12.70;99.90;;;;;;2093980;28;20341;-71
2024/03/30 05:38:23;;;;;;;;;;;12.70;99.90;;;;;;2088232;28;20012;-74
2024/03/30 05:39:23;;;;;;;;;;;12.70;99.90;;;;;;2101461;28;19916;-71
2024/03/30 05:40:25;;;;;;;;;;;12.70;99.90;;;;;;2094452;28;20340;-70
2024/03/30 05:41:25;;;;;;;;;;;12.70;99.90;;;;;;2091493;28;19920;-70
2024/03/30 05:42:25;;;;;;;;;;;12.80;99.90;;;;;;2085333;28;19990;-70
2024/03/30 05:43:26;;;;;;;;;;;12.80;99.90;;;;;;2085026;28;19988;-69
2024/03/30 05:44:27;;;;;;;;;;;12.80;99.90;;;;;;2098376;28;19942;-70
2024/03/30 05:45:27;;;;;;;;;;;12.80;99.90;;;;;;2100319;28;20423;-70
2024/03/30 05:46:27;;;;;;;;;;;12.90;99.90;;;;;;2097084;28;19912;-70
2024/03/30 05:47:28;;;;;;;;;;;12.90;99.90;;;;;;2096867;28;19916;-70
2024/03/30 05:48:28;;;;;;;;;;;12.90;99.90;;;;;;2100345;28;19961;-71
2024/03/30 05:49:29;;;;;;;;;;;12.90;99.90;;;;;;2097462;28;19916;-70
2024/03/30 05:50:29;;;;;;;;;;;12.90;99.90;;;;;;2096376;28;20312;-70
2024/03/30 05:51:30;;;;;;;;;;;12.90;99.90;;;;;;2099982;28;19912;-70
2024/03/30 05:52:30;;;;;;;;;;;12.90;99.90;;;;;;2097286;28;19916;-70
2024/03/30 05:53:31;;;;;;;;;;;12.90;99.90;;;;;;2096748;28;19916;-70
2024/03/30 05:54:31;;;;;;;;;;;12.90;99.90;;;;;;2099828;28;20368;-69
2024/03/30 05:55:32;;;;;;;;;;;12.90;99.90;;;;;;2087551;28;19950;-70
2024/03/30 05:56:32;;;;;;;;;;;13.00;99.90;;;;;;2087699;28;19909;-71